FFM2693 WMKN-WMKK
Flight info
| Callsign | FFM2693 |
|---|---|
| Flight time | 0h 42m |
| Altitude | 24000 |
| Route | LASOB Y346 PULIP |
| Aircraft | B738/M-SDE2E3FGHIRWXY/LB1 |
Departure
| Time | 2026-04-21 06:04 |
|---|---|
| Airport | Sultan Mahmud Airport (WMKN) |
Arrival
| Time | 2026-04-21 06:46 |
|---|---|
| Airport | Kuala Lumpur International Airport (WMKK) |
| Time | Latitude | Longitude | Altitude | Speed | Heading |
|---|---|---|---|---|---|
| 2026-04-21 05:41 | 5.37952 | 103.10458 | 37 ft | 0 kts | 135° |
| 2026-04-21 05:54 | 5.37955 | 103.10455 | 36 ft | 2 kts | 135° |
| 2026-04-21 05:54 | 5.37966 | 103.10444 | 36 ft | 2 kts | 135° |
| 2026-04-21 05:54 | 5.37976 | 103.10433 | 36 ft | 2 kts | 135° |
| 2026-04-21 05:54 | 5.37987 | 103.10422 | 36 ft | 2 kts | 135° |
| 2026-04-21 05:55 | 5.37997 | 103.10412 | 36 ft | 2 kts | 135° |
| 2026-04-21 05:55 | 5.38008 | 103.10401 | 35 ft | 1 kts | 135° |
| 2026-04-21 05:55 | 5.38015 | 103.10394 | 35 ft | 2 kts | 127° |
| 2026-04-21 05:55 | 5.38021 | 103.10381 | 35 ft | 2 kts | 102° |
| 2026-04-21 05:56 | 5.38022 | 103.10366 | 35 ft | 2 kts | 81° |
| 2026-04-21 05:56 | 5.38018 | 103.10352 | 35 ft | 2 kts | 60° |
| 2026-04-21 05:56 | 5.38012 | 103.10344 | 35 ft | 0 kts | 46° |
| 2026-04-21 05:56 | 5.38007 | 103.10339 | 35 ft | 0 kts | 43° |
| 2026-04-21 05:58 | 5.38011 | 103.10342 | 35 ft | 2 kts | 43° |
| 2026-04-21 05:59 | 5.38018 | 103.10349 | 35 ft | 4 kts | 44° |
| 2026-04-21 05:59 | 5.38065 | 103.10394 | 34 ft | 10 kts | 38° |
| 2026-04-21 05:59 | 5.38129 | 103.10397 | 33 ft | 9 kts | 324° |
| 2026-04-21 06:00 | 5.38232 | 103.10321 | 32 ft | 10 kts | 3° |
| 2026-04-21 06:00 | 5.38295 | 103.10358 | 32 ft | 13 kts | 43° |
| 2026-04-21 06:00 | 5.38380 | 103.10442 | 32 ft | 17 kts | 44° |
| 2026-04-21 06:00 | 5.38474 | 103.10534 | 29 ft | 20 kts | 44° |
| 2026-04-21 06:01 | 5.38572 | 103.10631 | 29 ft | 20 kts | 44° |
| 2026-04-21 06:01 | 5.38672 | 103.10729 | 29 ft | 19 kts | 44° |
| 2026-04-21 06:01 | 5.38774 | 103.10825 | 27 ft | 19 kts | 44° |
| 2026-04-21 06:01 | 5.38874 | 103.10925 | 24 ft | 19 kts | 44° |
| 2026-04-21 06:02 | 5.38968 | 103.11018 | 22 ft | 17 kts | 44° |
| 2026-04-21 06:02 | 5.39054 | 103.11102 | 17 ft | 15 kts | 44° |
| 2026-04-21 06:02 | 5.39128 | 103.11155 | 16 ft | 12 kts | 25° |
| 2026-04-21 06:02 | 5.39212 | 103.11187 | 14 ft | 14 kts | 28° |
| 2026-04-21 06:03 | 5.39210 | 103.11249 | 12 ft | 8 kts | 188° |
| 2026-04-21 06:03 | 5.39192 | 103.11237 | 12 ft | 0 kts | 223° |
| 2026-04-21 06:03 | 5.39189 | 103.11234 | 13 ft | 3 kts | 223° |
| 2026-04-21 06:03 | 5.39051 | 103.11100 | 17 ft | 64 kts | 224° |
| 2026-04-21 06:04 | 5.38557 | 103.10616 | 29 ft | 132 kts | 224° |
| 2026-04-21 06:04 | 5.37777 | 103.09847 | 254 ft | 167 kts | 225° |
| 2026-04-21 06:04 | 5.36953 | 103.09008 | 866 ft | 175 kts | 224° |
| 2026-04-21 06:04 | 5.36096 | 103.08122 | 1450 ft | 185 kts | 225° |
| 2026-04-21 06:05 | 5.35249 | 103.07107 | 1898 ft | 197 kts | 240° |
| 2026-04-21 06:05 | 5.34696 | 103.05810 | 2352 ft | 205 kts | 249° |
| 2026-04-21 06:05 | 5.34183 | 103.04496 | 2879 ft | 210 kts | 250° |
| 2026-04-21 06:05 | 5.33627 | 103.03078 | 3262 ft | 225 kts | 249° |
| 2026-04-21 06:06 | 5.33016 | 103.01544 | 3553 ft | 248 kts | 249° |
| 2026-04-21 06:06 | 5.32373 | 102.99907 | 4074 ft | 262 kts | 250° |
| 2026-04-21 06:06 | 5.31674 | 102.98132 | 4573 ft | 278 kts | 250° |
| 2026-04-21 06:06 | 5.30968 | 102.96339 | 5307 ft | 283 kts | 250° |
| 2026-04-21 06:07 | 5.30242 | 102.94495 | 6115 ft | 286 kts | 250° |
| 2026-04-21 06:07 | 5.29509 | 102.92634 | 6952 ft | 288 kts | 251° |
| 2026-04-21 06:07 | 5.28784 | 102.90791 | 7791 ft | 290 kts | 251° |
| 2026-04-21 06:07 | 5.28039 | 102.88901 | 8657 ft | 291 kts | 251° |
| 2026-04-21 06:08 | 5.27309 | 102.87047 | 9511 ft | 292 kts | 251° |
| 2026-04-21 06:08 | 5.26561 | 102.85149 | 10374 ft | 294 kts | 251° |
| 2026-04-21 06:08 | 5.25802 | 102.83216 | 10802 ft | 312 kts | 251° |
| 2026-04-21 06:08 | 5.24970 | 102.81096 | 11045 ft | 336 kts | 250° |
| 2026-04-21 06:09 | 5.24099 | 102.78889 | 11748 ft | 344 kts | 250° |
| 2026-04-21 06:09 | 5.23218 | 102.76657 | 12551 ft | 349 kts | 250° |
| 2026-04-21 06:09 | 5.22321 | 102.74382 | 13384 ft | 353 kts | 250° |
| 2026-04-21 06:09 | 5.21411 | 102.72100 | 14204 ft | 357 kts | 248° |
| 2026-04-21 06:10 | 5.20121 | 102.69997 | 14974 ft | 364 kts | 230° |
| 2026-04-21 06:10 | 5.18099 | 102.68466 | 15766 ft | 371 kts | 210° |
| 2026-04-21 06:10 | 5.15768 | 102.67312 | 16609 ft | 374 kts | 208° |
| 2026-04-21 06:10 | 5.13478 | 102.66130 | 17369 ft | 377 kts | 210° |
| 2026-04-21 06:11 | 5.11163 | 102.64894 | 18125 ft | 380 kts | 210° |
| 2026-04-21 06:11 | 5.08819 | 102.63655 | 18880 ft | 382 kts | 209° |
| 2026-04-21 06:11 | 5.06471 | 102.62422 | 19608 ft | 385 kts | 209° |
| 2026-04-21 06:11 | 5.04133 | 102.61193 | 20315 ft | 387 kts | 208° |
| 2026-04-21 06:12 | 5.01740 | 102.59934 | 21002 ft | 390 kts | 208° |
| 2026-04-21 06:12 | 4.99338 | 102.58671 | 21670 ft | 392 kts | 208° |
| 2026-04-21 06:12 | 4.96919 | 102.57399 | 22319 ft | 395 kts | 208° |
| 2026-04-21 06:12 | 4.94493 | 102.56125 | 22916 ft | 398 kts | 207° |
| 2026-04-21 06:13 | 4.92055 | 102.54846 | 23485 ft | 401 kts | 207° |
| 2026-04-21 06:13 | 4.89555 | 102.53539 | 23868 ft | 404 kts | 207° |
| 2026-04-21 06:13 | 4.87078 | 102.52242 | 23855 ft | 409 kts | 207° |
| 2026-04-21 06:13 | 4.84574 | 102.50932 | 23859 ft | 404 kts | 207° |
| 2026-04-21 06:14 | 4.82078 | 102.49625 | 23858 ft | 403 kts | 207° |
| 2026-04-21 06:14 | 4.79597 | 102.48327 | 23858 ft | 403 kts | 207° |
| 2026-04-21 06:14 | 4.77137 | 102.47041 | 23858 ft | 404 kts | 207° |
| 2026-04-21 06:14 | 4.74642 | 102.45734 | 23860 ft | 404 kts | 207° |
| 2026-04-21 06:15 | 4.72183 | 102.44447 | 23861 ft | 404 kts | 207° |
| 2026-04-21 06:15 | 4.69699 | 102.43148 | 23863 ft | 404 kts | 207° |
| 2026-04-21 06:15 | 4.67207 | 102.41844 | 23864 ft | 404 kts | 207° |
| 2026-04-21 06:15 | 4.64707 | 102.40536 | 23866 ft | 404 kts | 207° |
| 2026-04-21 06:16 | 4.62219 | 102.39235 | 23867 ft | 404 kts | 207° |
| 2026-04-21 06:16 | 4.59755 | 102.37946 | 23866 ft | 404 kts | 207° |
| 2026-04-21 06:16 | 4.57270 | 102.36646 | 23865 ft | 404 kts | 207° |
| 2026-04-21 06:16 | 4.54765 | 102.35336 | 23864 ft | 404 kts | 207° |
| 2026-04-21 06:17 | 4.52277 | 102.34035 | 23862 ft | 404 kts | 207° |
| 2026-04-21 06:17 | 4.49814 | 102.32747 | 23860 ft | 404 kts | 207° |
| 2026-04-21 06:17 | 4.47312 | 102.31438 | 23858 ft | 404 kts | 207° |
| 2026-04-21 06:17 | 4.44831 | 102.30141 | 23858 ft | 404 kts | 207° |
| 2026-04-21 06:18 | 4.42342 | 102.28841 | 23858 ft | 404 kts | 207° |
| 2026-04-21 06:18 | 4.39883 | 102.27555 | 23858 ft | 404 kts | 207° |
| 2026-04-21 06:18 | 4.37396 | 102.26255 | 23858 ft | 404 kts | 207° |
| 2026-04-21 06:18 | 4.34902 | 102.24951 | 23858 ft | 404 kts | 207° |
| 2026-04-21 06:19 | 4.32433 | 102.23661 | 23858 ft | 404 kts | 207° |
| 2026-04-21 06:19 | 4.29929 | 102.22353 | 23859 ft | 404 kts | 207° |
| 2026-04-21 06:19 | 4.27445 | 102.21055 | 23860 ft | 404 kts | 207° |
| 2026-04-21 06:19 | 4.24972 | 102.19762 | 23858 ft | 404 kts | 207° |
| 2026-04-21 06:20 | 4.22495 | 102.18469 | 23858 ft | 404 kts | 207° |
| 2026-04-21 06:20 | 4.19994 | 102.17162 | 23858 ft | 404 kts | 207° |
| 2026-04-21 06:20 | 4.17524 | 102.15871 | 23858 ft | 404 kts | 207° |
| 2026-04-21 06:20 | 4.15024 | 102.14565 | 23858 ft | 404 kts | 207° |
| 2026-04-21 06:21 | 4.12563 | 102.13280 | 23858 ft | 404 kts | 207° |
| 2026-04-21 06:21 | 4.10042 | 102.11964 | 23858 ft | 404 kts | 207° |
| 2026-04-21 06:21 | 4.07575 | 102.10675 | 23858 ft | 404 kts | 207° |
| 2026-04-21 06:21 | 4.05074 | 102.09369 | 23858 ft | 404 kts | 207° |
| 2026-04-21 06:22 | 4.02587 | 102.08070 | 23858 ft | 404 kts | 207° |
| 2026-04-21 06:22 | 4.00121 | 102.06782 | 23858 ft | 404 kts | 207° |
| 2026-04-21 06:22 | 3.97607 | 102.05470 | 23858 ft | 404 kts | 207° |
| 2026-04-21 06:22 | 3.95127 | 102.04176 | 23858 ft | 404 kts | 207° |
| 2026-04-21 06:23 | 3.92636 | 102.02875 | 23858 ft | 404 kts | 207° |
| 2026-04-21 06:23 | 3.90156 | 102.01580 | 23858 ft | 404 kts | 207° |
| 2026-04-21 06:23 | 3.87686 | 102.00291 | 23858 ft | 404 kts | 207° |
| 2026-04-21 06:23 | 3.85215 | 101.99001 | 23858 ft | 404 kts | 207° |
| 2026-04-21 06:24 | 3.82703 | 101.97691 | 23858 ft | 404 kts | 207° |
| 2026-04-21 06:24 | 3.80225 | 101.96397 | 23858 ft | 404 kts | 207° |
| 2026-04-21 06:24 | 3.77753 | 101.95107 | 23858 ft | 404 kts | 207° |
| 2026-04-21 06:24 | 3.75253 | 101.93803 | 23858 ft | 404 kts | 207° |
| 2026-04-21 06:25 | 3.72779 | 101.92512 | 23858 ft | 404 kts | 207° |
| 2026-04-21 06:25 | 3.70270 | 101.91203 | 23858 ft | 404 kts | 207° |
| 2026-04-21 06:25 | 3.67767 | 101.89973 | 23857 ft | 404 kts | 203° |
| 2026-04-21 06:25 | 3.65143 | 101.88982 | 23860 ft | 404 kts | 199° |
| 2026-04-21 06:26 | 3.62487 | 101.88107 | 23862 ft | 404 kts | 198° |
| 2026-04-21 06:26 | 3.59824 | 101.87205 | 23864 ft | 404 kts | 199° |
| 2026-04-21 06:26 | 3.57196 | 101.86301 | 23865 ft | 403 kts | 199° |
| 2026-04-21 06:26 | 3.54540 | 101.85397 | 23866 ft | 403 kts | 199° |
| 2026-04-21 06:27 | 3.51884 | 101.84506 | 23985 ft | 407 kts | 198° |
| 2026-04-21 06:27 | 3.49159 | 101.83587 | 24000 ft | 417 kts | 199° |
| 2026-04-21 06:27 | 3.46440 | 101.82668 | 23999 ft | 418 kts | 199° |
| 2026-04-21 06:27 | 3.43690 | 101.81741 | 23999 ft | 417 kts | 198° |
| 2026-04-21 06:28 | 3.40945 | 101.80817 | 23999 ft | 416 kts | 198° |
| 2026-04-21 06:28 | 3.38190 | 101.79891 | 24000 ft | 416 kts | 198° |
| 2026-04-21 06:28 | 3.35458 | 101.79009 | 23999 ft | 416 kts | 195° |
| 2026-04-21 06:28 | 3.32627 | 101.78421 | 23999 ft | 416 kts | 187° |
| 2026-04-21 06:29 | 3.29732 | 101.78316 | 23999 ft | 416 kts | 176° |
| 2026-04-21 06:29 | 3.26896 | 101.78742 | 23980 ft | 415 kts | 167° |
| 2026-04-21 06:29 | 3.24155 | 101.79552 | 23450 ft | 413 kts | 159° |
| 2026-04-21 06:29 | 3.21641 | 101.80838 | 23023 ft | 407 kts | 147° |
| 2026-04-21 06:30 | 3.19409 | 101.82540 | 22546 ft | 402 kts | 140° |
| 2026-04-21 06:30 | 3.17279 | 101.84325 | 22042 ft | 399 kts | 140° |
| 2026-04-21 06:30 | 3.15130 | 101.86078 | 21530 ft | 396 kts | 141° |
| 2026-04-21 06:30 | 3.13012 | 101.87794 | 21025 ft | 393 kts | 141° |
| 2026-04-21 06:31 | 3.10921 | 101.89504 | 20524 ft | 390 kts | 141° |
| 2026-04-21 06:31 | 3.08834 | 101.91219 | 20022 ft | 387 kts | 140° |
| 2026-04-21 06:31 | 3.06779 | 101.92909 | 19526 ft | 384 kts | 140° |
| 2026-04-21 06:31 | 3.04719 | 101.94605 | 19028 ft | 381 kts | 140° |
| 2026-04-21 06:32 | 3.02699 | 101.96269 | 18539 ft | 378 kts | 140° |
| 2026-04-21 06:32 | 3.00667 | 101.97945 | 18045 ft | 376 kts | 140° |
| 2026-04-21 06:32 | 2.98666 | 101.99595 | 17557 ft | 373 kts | 140° |
| 2026-04-21 06:32 | 2.96680 | 102.01234 | 17073 ft | 370 kts | 140° |
| 2026-04-21 06:33 | 2.94721 | 102.02853 | 16593 ft | 368 kts | 140° |
| 2026-04-21 06:33 | 2.92760 | 102.04472 | 16112 ft | 365 kts | 140° |
| 2026-04-21 06:33 | 2.90802 | 102.06089 | 15631 ft | 362 kts | 140° |
| 2026-04-21 06:33 | 2.88887 | 102.07671 | 15160 ft | 360 kts | 140° |
| 2026-04-21 06:34 | 2.86971 | 102.09253 | 14688 ft | 357 kts | 140° |
| 2026-04-21 06:34 | 2.85047 | 102.10842 | 14212 ft | 355 kts | 140° |
| 2026-04-21 06:34 | 2.83116 | 102.12311 | 13732 ft | 353 kts | 149° |
| 2026-04-21 06:34 | 2.80829 | 102.13117 | 13226 ft | 350 kts | 173° |
| 2026-04-21 06:35 | 2.78453 | 102.12911 | 12749 ft | 347 kts | 196° |
| 2026-04-21 06:35 | 2.76271 | 102.11928 | 12303 ft | 344 kts | 211° |
| 2026-04-21 06:35 | 2.74315 | 102.10653 | 12170 ft | 331 kts | 213° |
| 2026-04-21 06:35 | 2.72428 | 102.09443 | 11951 ft | 312 kts | 212° |
| 2026-04-21 06:36 | 2.70644 | 102.08317 | 11553 ft | 299 kts | 212° |
| 2026-04-21 06:36 | 2.68904 | 102.07205 | 11226 ft | 295 kts | 212° |
| 2026-04-21 06:36 | 2.67169 | 102.06093 | 10887 ft | 293 kts | 212° |
| 2026-04-21 06:36 | 2.65480 | 102.05010 | 10533 ft | 291 kts | 212° |
| 2026-04-21 06:37 | 2.63794 | 102.03928 | 10176 ft | 289 kts | 212° |
| 2026-04-21 06:37 | 2.62092 | 102.02837 | 9835 ft | 286 kts | 212° |
| 2026-04-21 06:37 | 2.60451 | 102.01783 | 9643 ft | 279 kts | 212° |
| 2026-04-21 06:37 | 2.58824 | 102.00738 | 9348 ft | 275 kts | 212° |
| 2026-04-21 06:38 | 2.57228 | 101.99713 | 9011 ft | 274 kts | 212° |
| 2026-04-21 06:38 | 2.55621 | 101.98682 | 8590 ft | 276 kts | 212° |
| 2026-04-21 06:38 | 2.54025 | 101.97656 | 8208 ft | 276 kts | 213° |
| 2026-04-21 06:38 | 2.52569 | 101.96460 | 7724 ft | 270 kts | 231° |
| 2026-04-21 06:39 | 2.51526 | 101.94929 | 7167 ft | 267 kts | 237° |
| 2026-04-21 06:39 | 2.50503 | 101.93392 | 6602 ft | 265 kts | 236° |
| 2026-04-21 06:39 | 2.49467 | 101.91869 | 6034 ft | 263 kts | 236° |
| 2026-04-21 06:39 | 2.48533 | 101.90346 | 5474 ft | 260 kts | 248° |
| 2026-04-21 06:40 | 2.48321 | 101.88571 | 4912 ft | 256 kts | 281° |
| 2026-04-21 06:40 | 2.49062 | 101.87032 | 4549 ft | 245 kts | 313° |
| 2026-04-21 06:40 | 2.50372 | 101.85962 | 4273 ft | 242 kts | 324° |
| 2026-04-21 06:40 | 2.51727 | 101.84987 | 3979 ft | 241 kts | 324° |
| 2026-04-21 06:41 | 2.53090 | 101.84039 | 3723 ft | 237 kts | 326° |
| 2026-04-21 06:41 | 2.54438 | 101.83131 | 3624 ft | 226 kts | 326° |
| 2026-04-21 06:41 | 2.55683 | 101.82295 | 3634 ft | 209 kts | 326° |
| 2026-04-21 06:41 | 2.56862 | 101.81506 | 3516 ft | 199 kts | 326° |
| 2026-04-21 06:42 | 2.57957 | 101.80772 | 3251 ft | 184 kts | 326° |
| 2026-04-21 06:42 | 2.58968 | 101.80094 | 3040 ft | 167 kts | 326° |
| 2026-04-21 06:42 | 2.59931 | 101.79448 | 2805 ft | 167 kts | 326° |
| 2026-04-21 06:42 | 2.60895 | 101.78802 | 2573 ft | 166 kts | 326° |
| 2026-04-21 06:43 | 2.61845 | 101.78165 | 2345 ft | 165 kts | 326° |
| 2026-04-21 06:43 | 2.62803 | 101.77522 | 2116 ft | 165 kts | 326° |
| 2026-04-21 06:43 | 2.63750 | 101.76887 | 1890 ft | 164 kts | 326° |
| 2026-04-21 06:43 | 2.64700 | 101.76251 | 1665 ft | 164 kts | 326° |
| 2026-04-21 06:44 | 2.65638 | 101.75622 | 1444 ft | 163 kts | 326° |
| 2026-04-21 06:44 | 2.66556 | 101.75006 | 1247 ft | 155 kts | 326° |
| 2026-04-21 06:44 | 2.67452 | 101.74406 | 1017 ft | 153 kts | 326° |
| 2026-04-21 06:44 | 2.68329 | 101.73818 | 811 ft | 152 kts | 326° |
| 2026-04-21 06:45 | 2.69214 | 101.73225 | 605 ft | 152 kts | 326° |
| 2026-04-21 06:45 | 2.70091 | 101.72636 | 406 ft | 151 kts | 326° |
| 2026-04-21 06:45 | 2.70965 | 101.72050 | 205 ft | 151 kts | 326° |
| 2026-04-21 06:45 | 2.71821 | 101.71478 | 95 ft | 143 kts | 326° |
| 2026-04-21 06:46 | 2.72547 | 101.70991 | 76 ft | 102 kts | 326° |
| 2026-04-21 06:46 | 2.73016 | 101.70677 | 75 ft | 54 kts | 326° |
| 2026-04-21 06:46 | 2.73253 | 101.70519 | 75 ft | 30 kts | 327° |
| 2026-04-21 06:46 | 2.73379 | 101.70468 | 75 ft | 17 kts | 349° |
| 2026-04-21 06:47 | 2.73515 | 101.70459 | 75 ft | 21 kts | 358° |
| 2026-04-21 06:47 | 2.73637 | 101.70457 | 75 ft | 15 kts | 360° |
| 2026-04-21 06:47 | 2.73739 | 101.70419 | 75 ft | 15 kts | 326° |
| 2026-04-21 06:47 | 2.73831 | 101.70358 | 75 ft | 16 kts | 326° |
| 2026-04-21 06:48 | 2.73925 | 101.70296 | 75 ft | 18 kts | 327° |
| 2026-04-21 06:48 | 2.74040 | 101.70217 | 75 ft | 20 kts | 327° |
| 2026-04-21 06:48 | 2.74154 | 101.70143 | 75 ft | 21 kts | 326° |
| 2026-04-21 06:48 | 2.74267 | 101.70067 | 75 ft | 19 kts | 326° |
| 2026-04-21 06:49 | 2.74351 | 101.70010 | 75 ft | 10 kts | 328° |
| 2026-04-21 06:49 | 2.74417 | 101.70023 | 75 ft | 11 kts | 53° |
| 2026-04-21 06:49 | 2.74469 | 101.70100 | 75 ft | 17 kts | 56° |
| 2026-04-21 06:49 | 2.74535 | 101.70197 | 75 ft | 16 kts | 56° |
| 2026-04-21 06:50 | 2.74603 | 101.70298 | 75 ft | 16 kts | 56° |
| 2026-04-21 06:50 | 2.74670 | 101.70396 | 75 ft | 16 kts | 56° |
| 2026-04-21 06:50 | 2.74736 | 101.70494 | 75 ft | 17 kts | 56° |
| 2026-04-21 06:50 | 2.74801 | 101.70590 | 75 ft | 16 kts | 56° |
| 2026-04-21 06:51 | 2.74869 | 101.70689 | 75 ft | 16 kts | 56° |
| 2026-04-21 06:51 | 2.74936 | 101.70788 | 75 ft | 16 kts | 56° |
| 2026-04-21 06:51 | 2.75002 | 101.70886 | 75 ft | 17 kts | 56° |
| 2026-04-21 06:51 | 2.75069 | 101.70984 | 75 ft | 17 kts | 55° |
| 2026-04-21 06:52 | 2.75136 | 101.71081 | 75 ft | 17 kts | 55° |
| 2026-04-21 06:52 | 2.75202 | 101.71179 | 75 ft | 15 kts | 56° |
| 2026-04-21 06:52 | 2.75255 | 101.71258 | 75 ft | 12 kts | 56° |
| 2026-04-21 06:52 | 2.75313 | 101.71314 | 75 ft | 13 kts | 9° |
| 2026-04-21 06:53 | 2.75388 | 101.71281 | 75 ft | 10 kts | 326° |
| 2026-04-21 06:53 | 2.75457 | 101.71234 | 75 ft | 16 kts | 326° |
| 2026-04-21 06:53 | 2.75557 | 101.71168 | 75 ft | 15 kts | 327° |
| 2026-04-21 06:53 | 2.75639 | 101.71111 | 75 ft | 13 kts | 325° |
| 2026-04-21 06:54 | 2.75707 | 101.71065 | 75 ft | 8 kts | 320° |
| 2026-04-21 06:54 | 2.75714 | 101.71013 | 75 ft | 8 kts | 237° |
| 2026-04-21 06:54 | 2.75686 | 101.70973 | 75 ft | 5 kts | 235° |
| 2026-04-21 06:54 | 2.75661 | 101.70961 | 75 ft | 2 kts | 150° |
| 2026-04-21 06:55 | 2.75644 | 101.70972 | 75 ft | 2 kts | 146° |
| 2026-04-21 06:55 | 2.75640 | 101.70976 | 75 ft | 0 kts | 146° |